sensor_id;sensor_type;location;lat;lon;timestamp;pressure;altitude;pressure_sealevel;temperature;humidity
35577;BME280;21680;52.400;16.920;2022-08-23T00:01:59;100710.02;;;18.00;91.37
35577;BME280;21680;52.400;16.920;2022-08-23T00:04:32;100708.78;;;17.98;91.39
35577;BME280;21680;52.400;16.920;2022-08-23T00:07:02;100716.42;;;17.99;91.33
35577;BME280;21680;52.400;16.920;2022-08-23T00:09:30;100713.33;;;17.98;91.23
35577;BME280;21680;52.400;16.920;2022-08-23T00:12:16;100717.78;;;17.99;91.23
35577;BME280;21680;52.400;16.920;2022-08-23T00:14:46;100711.86;;;17.99;91.18
35577;BME280;21680;52.400;16.920;2022-08-23T00:17:14;100711.59;;;17.97;91.19
35577;BME280;21680;52.400;16.920;2022-08-23T00:19:41;100704.44;;;17.96;91.13
35577;BME280;21680;52.400;16.920;2022-08-23T00:22:08;100707.49;;;17.91;91.10
35577;BME280;21680;52.400;16.920;2022-08-23T00:24:35;100697.24;;;17.89;91.00
35577;BME280;21680;52.400;16.920;2022-08-23T00:27:05;100695.77;;;17.91;91.06
35577;BME280;21680;52.400;16.920;2022-08-23T00:29:50;100691.55;;;17.87;90.99
35577;BME280;21680;52.400;16.920;2022-08-23T00:32:24;100688.47;;;17.86;91.05
35577;BME280;21680;52.400;16.920;2022-08-23T00:34:49;100688.84;;;17.87;91.07
35577;BME280;21680;52.400;16.920;2022-08-23T00:37:16;100683.80;;;17.88;91.07
35577;BME280;21680;52.400;16.920;2022-08-23T00:39:42;100680.97;;;17.89;91.08
35577;BME280;21680;52.400;16.920;2022-08-23T00:42:12;100684.78;;;17.87;91.00
35577;BME280;21680;52.400;16.920;2022-08-23T00:45:20;100687.48;;;17.87;91.06
35577;BME280;21680;52.400;16.920;2022-08-23T00:48:06;100687.86;;;17.88;91.08
35577;BME280;21680;52.400;16.920;2022-08-23T00:53:25;100679.02;;;17.91;91.07
35577;BME280;21680;52.400;16.920;2022-08-23T00:55:55;100683.69;;;17.89;91.00
35577;BME280;21680;52.400;16.920;2022-08-23T00:58:24;100678.75;;;17.89;91.05
35577;BME280;21680;52.400;16.920;2022-08-23T01:00:51;100678.75;;;17.89;91.07
35577;BME280;21680;52.400;16.920;2022-08-23T01:03:21;100678.00;;;17.87;91.05
35577;BME280;21680;52.400;16.920;2022-08-23T01:06:13;100676.27;;;17.86;91.08
35577;BME280;21680;52.400;16.920;2022-08-23T01:08:42;100678.98;;;17.86;91.11
35577;BME280;21680;52.400;16.920;2022-08-23T01:11:18;100678.11;;;17.85;91.12
35577;BME280;21680;52.400;16.920;2022-08-23T01:13:50;100682.78;;;17.83;91.03
35577;BME280;21680;52.400;16.920;2022-08-23T01:16:26;100691.17;;;17.86;91.08
35577;BME280;21680;52.400;16.920;2022-08-23T01:18:56;100690.69;;;17.86;91.08
35577;BME280;21680;52.400;16.920;2022-08-23T01:21:32;100694.48;;;17.83;91.09
35577;BME280;21680;52.400;16.920;2022-08-23T01:24:03;100681.37;;;17.77;91.09
35577;BME280;21680;52.400;16.920;2022-08-23T01:26:29;100689.44;;;17.84;91.09
35577;BME280;21680;52.400;16.920;2022-08-23T01:28:58;100689.70;;;17.87;91.09
35577;BME280;21680;52.400;16.920;2022-08-23T01:31:25;100688.47;;;17.86;91.05
35577;BME280;21680;52.400;16.920;2022-08-23T01:33:58;100689.70;;;17.87;91.09
35577;BME280;21680;52.400;16.920;2022-08-23T01:36:26;100689.22;;;17.88;91.02
35577;BME280;21680;52.400;16.920;2022-08-23T01:38:53;100684.78;;;17.87;91.04
35577;BME280;21680;52.400;16.920;2022-08-23T01:41:20;100680.93;;;17.83;91.05
35577;BME280;21680;52.400;16.920;2022-08-23T01:43:46;100689.94;;;17.84;91.01
35577;BME280;21680;52.400;16.920;2022-08-23T01:46:16;100689.55;;;17.83;91.09
35577;BME280;21680;52.400;16.920;2022-08-23T01:48:45;100694.11;;;17.82;91.15
35577;BME280;21680;52.400;16.920;2022-08-23T01:51:16;100686.73;;;17.84;91.18
35577;BME280;21680;52.400;16.920;2022-08-23T01:53:43;100690.80;;;17.84;91.21
35577;BME280;21680;52.400;16.920;2022-08-23T01:56:12;100693.13;;;17.83;91.24
35577;BME280;21680;52.400;16.920;2022-08-23T01:58:39;100693.36;;;17.80;91.23
35577;BME280;21680;52.400;16.920;2022-08-23T02:01:05;100694.06;;;17.77;91.29
35577;BME280;21680;52.400;16.920;2022-08-23T02:03:32;100695.16;;;17.74;91.26
35577;BME280;21680;52.400;16.920;2022-08-23T02:05:59;100696.69;;;17.66;91.22
35577;BME280;21680;52.400;16.920;2022-08-23T02:08:25;100698.45;;;17.60;91.20
35577;BME280;21680;52.400;16.920;2022-08-23T02:11:17;100698.62;;;17.51;91.17
35577;BME280;21680;52.400;16.920;2022-08-23T02:13:47;100698.45;;;17.34;91.10
35577;BME280;21680;52.400;16.920;2022-08-23T02:16:23;100688.21;;;17.19;91.15
35577;BME280;21680;52.400;16.920;2022-08-23T02:18:54;100683.91;;;16.97;91.25
35577;BME280;21680;52.400;16.920;2022-08-23T02:21:22;100688.02;;;16.90;91.42
35577;BME280;21680;52.400;16.920;2022-08-23T02:23:50;100684.31;;;16.78;91.80
35577;BME280;21680;52.400;16.920;2022-08-23T02:26:17;100687.54;;;16.71;92.03
35577;BME280;21680;52.400;16.920;2022-08-23T02:28:44;100661.63;;;16.47;92.74
35577;BME280;21680;52.400;16.920;2022-08-23T02:31:10;100661.63;;;16.47;92.74
35577;BME280;21680;52.400;16.920;2022-08-23T02:33:36;100659.43;;;16.39;92.60
35577;BME280;21680;52.400;16.920;2022-08-23T02:36:03;100675.25;;;16.45;92.89
35577;BME280;21680;52.400;16.920;2022-08-23T02:38:29;100683.88;;;16.38;93.83
35577;BME280;21680;52.400;16.920;2022-08-23T02:40:54;100683.88;;;16.38;93.83
35577;BME280;21680;52.400;16.920;2022-08-23T02:43:20;100693.34;;;16.38;94.13
35577;BME280;21680;52.400;16.920;2022-08-23T02:45:46;100690.16;;;16.38;94.21
35577;BME280;21680;52.400;16.920;2022-08-23T02:48:12;100689.19;;;16.39;94.40
35577;BME280;21680;52.400;16.920;2022-08-23T02:50:38;100695.36;;;16.41;94.57
35577;BME280;21680;52.400;16.920;2022-08-23T02:53:04;100692.08;;;16.43;94.59
35577;BME280;21680;52.400;16.920;2022-08-23T02:55:30;100698.25;;;16.45;94.81
35577;BME280;21680;52.400;16.920;2022-08-23T02:57:56;100674.62;;;16.35;95.24
35577;BME280;21680;52.400;16.920;2022-08-23T03:00:23;100696.03;;;16.45;94.93
35577;BME280;21680;52.400;16.920;2022-08-23T03:02:50;100703.17;;;16.46;95.10
35577;BME280;21680;52.400;16.920;2022-08-23T03:05:16;100703.07;;;16.47;95.20
35577;BME280;21680;52.400;16.920;2022-08-23T03:07:43;100709.25;;;16.49;95.38
35577;BME280;21680;52.400;16.920;2022-08-23T03:10:11;100711.75;;;16.52;95.51
35577;BME280;21680;52.400;16.920;2022-08-23T03:12:37;100714.73;;;16.55;95.65
35577;BME280;21680;52.400;16.920;2022-08-23T03:15:04;100713.87;;;16.54;95.60
35577;BME280;21680;52.400;16.920;2022-08-23T03:17:32;100723.62;;;16.57;95.86
35577;BME280;21680;52.400;16.920;2022-08-23T03:19:57;100723.52;;;16.59;95.92
35577;BME280;21680;52.400;16.920;2022-08-23T03:22:23;100725.63;;;16.61;96.04
35577;BME280;21680;52.400;16.920;2022-08-23T03:24:49;100727.38;;;16.62;96.25
35577;BME280;21680;52.400;16.920;2022-08-23T03:27:15;100727.38;;;16.62;96.25
35577;BME280;21680;52.400;16.920;2022-08-23T03:29:41;100716.44;;;16.63;96.38
35577;BME280;21680;52.400;16.920;2022-08-23T03:32:07;100721.47;;;16.62;96.33
35577;BME280;21680;52.400;16.920;2022-08-23T03:34:33;100718.28;;;16.63;96.47
35577;BME280;21680;52.400;16.920;2022-08-23T03:36:59;100714.60;;;16.64;96.56
35577;BME280;21680;52.400;16.920;2022-08-23T03:39:25;100712.70;;;16.66;96.64
35577;BME280;21680;52.400;16.920;2022-08-23T03:41:51;100712.70;;;16.66;96.64
35577;BME280;21680;52.400;16.920;2022-08-23T03:44:17;100719.36;;;16.67;97.01
35577;BME280;21680;52.400;16.920;2022-08-23T03:46:43;100719.36;;;16.67;97.05
35577;BME280;21680;52.400;16.920;2022-08-23T03:49:09;100732.41;;;16.68;96.97
35577;BME280;21680;52.400;16.920;2022-08-23T03:51:35;100732.41;;;16.68;96.97
35577;BME280;21680;52.400;16.920;2022-08-23T03:54:03;100730.08;;;16.69;97.30
35577;BME280;21680;52.400;16.920;2022-08-23T03:56:32;100730.46;;;16.70;97.45
35577;BME280;21680;52.400;16.920;2022-08-23T03:59:04;100727.17;;;16.72;97.59
35577;BME280;21680;52.400;16.920;2022-08-23T04:01:32;100730.16;;;16.74;97.62
35577;BME280;21680;52.400;16.920;2022-08-23T04:03:57;100733.14;;;16.77;97.83
35577;BME280;21680;52.400;16.920;2022-08-23T04:06:26;100730.05;;;16.76;97.85
35577;BME280;21680;52.400;16.920;2022-08-23T04:08:53;100735.25;;;16.79;97.97
35577;BME280;21680;52.400;16.920;2022-08-23T04:11:20;100735.25;;;16.79;97.97
35577;BME280;21680;52.400;16.920;2022-08-23T04:13:47;100731.95;;;16.81;98.11
35577;BME280;21680;52.400;16.920;2022-08-23T04:16:13;100723.84;;;16.81;98.18
35577;BME280;21680;52.400;16.920;2022-08-23T04:18:39;100733.31;;;16.81;98.28
35577;BME280;21680;52.400;16.920;2022-08-23T04:21:08;100730.61;;;16.81;98.38
35577;BME280;21680;52.400;16.920;2022-08-23T04:23:37;100732.34;;;16.82;98.49
35577;BME280;21680;52.400;16.920;2022-08-23T04:26:05;100705.23;;;16.69;98.61
35577;BME280;21680;52.400;16.920;2022-08-23T04:28:32;100695.38;;;16.68;98.71
35577;BME280;21680;52.400;16.920;2022-08-23T04:30:59;100698.36;;;16.71;98.86
35577;BME280;21680;52.400;16.920;2022-08-23T04:33:27;100718.59;;;16.85;98.95
35577;BME280;21680;52.400;16.920;2022-08-23T04:35:56;100721.48;;;16.89;99.09
35577;BME280;21680;52.400;16.920;2022-08-23T04:38:22;100717.59;;;16.93;99.18
35577;BME280;21680;52.400;16.920;2022-08-23T04:40:48;100712.06;;;16.95;99.21
35577;BME280;21680;52.400;16.920;2022-08-23T04:43:32;100712.34;;;16.97;99.33
35577;BME280;21680;52.400;16.920;2022-08-23T04:45:58;100720.25;;;17.00;99.34
35577;BME280;21680;52.400;16.920;2022-08-23T04:48:25;100713.86;;;17.01;99.42
35577;BME280;21680;52.400;16.920;2022-08-23T04:50:51;100712.89;;;17.02;99.65
35577;BME280;21680;52.400;16.920;2022-08-23T04:53:18;100720.05;;;17.03;99.63
35577;BME280;21680;52.400;16.920;2022-08-23T04:55:45;100721.13;;;17.01;99.74
35577;BME280;21680;52.400;16.920;2022-08-23T04:58:11;100719.56;;;17.04;99.90
35577;BME280;21680;52.400;16.920;2022-08-23T05:00:37;100723.79;;;17.08;100.00
35577;BME280;21680;52.400;16.920;2022-08-23T05:03:03;100729.27;;;17.13;100.00
35577;BME280;21680;52.400;16.920;2022-08-23T05:05:29;100731.28;;;17.17;100.00
35577;BME280;21680;52.400;16.920;2022-08-23T05:07:55;100722.07;;;17.19;100.00
35577;BME280;21680;52.400;16.920;2022-08-23T05:10:21;100721.75;;;17.24;100.00
35577;BME280;21680;52.400;16.920;2022-08-23T05:12:47;100716.98;;;17.28;100.00
35577;BME280;21680;52.400;16.920;2022-08-23T05:15:13;100725.28;;;17.32;100.00
35577;BME280;21680;52.400;16.920;2022-08-23T05:17:39;100729.51;;;17.36;100.00
35577;BME280;21680;52.400;16.920;2022-08-23T05:20:07;100731.41;;;17.41;100.00
35577;BME280;21680;52.400;16.920;2022-08-23T05:22:36;100728.59;;;17.42;100.00
35577;BME280;21680;52.400;16.920;2022-08-23T05:25:04;100732.92;;;17.45;100.00
35577;BME280;21680;52.400;16.920;2022-08-23T05:27:30;100726.69;;;17.50;100.00
35577;BME280;21680;52.400;16.920;2022-08-23T05:29:56;100719.48;;;17.56;100.00
35577;BME280;21680;52.400;16.920;2022-08-23T05:32:22;100718.28;;;17.60;100.00
35577;BME280;21680;52.400;16.920;2022-08-23T05:34:50;100713.41;;;17.65;100.00
35577;BME280;21680;52.400;16.920;2022-08-23T05:37:16;100702.30;;;17.63;100.00
35577;BME280;21680;52.400;16.920;2022-08-23T05:39:42;100684.19;;;17.63;100.00
35577;BME280;21680;52.400;16.920;2022-08-23T05:42:11;100692.51;;;17.67;100.00
35577;BME280;21680;52.400;16.920;2022-08-23T05:44:39;100697.06;;;17.67;100.00
35577;BME280;21680;52.400;16.920;2022-08-23T05:47:06;100696.84;;;17.70;100.00
35577;BME280;21680;52.400;16.920;2022-08-23T05:49:34;100702.75;;;17.69;100.00
35577;BME280;21680;52.400;16.920;2022-08-23T05:52:05;100700.42;;;17.70;100.00
35577;BME280;21680;52.400;16.920;2022-08-23T05:54:32;100691.31;;;17.71;100.00
35577;BME280;21680;52.400;16.920;2022-08-23T05:56:59;100707.09;;;17.72;100.00
35577;BME280;21680;52.400;16.920;2022-08-23T05:59:25;100710.17;;;17.73;100.00
35577;BME280;21680;52.400;16.920;2022-08-23T06:01:51;100724.76;;;17.77;100.00
35577;BME280;21680;52.400;16.920;2022-08-23T06:04:18;100715.53;;;17.80;100.00
35577;BME280;21680;52.400;16.920;2022-08-23T06:06:44;100729.25;;;17.84;100.00
35577;BME280;21680;52.400;16.920;2022-08-23T06:09:14;100731.25;;;17.88;100.00
35577;BME280;21680;52.400;16.920;2022-08-23T06:11:43;100723.38;;;17.90;100.00
35577;BME280;21680;52.400;16.920;2022-08-23T06:14:10;100717.52;;;17.96;100.00
35577;BME280;21680;52.400;16.920;2022-08-23T06:16:39;100718.16;;;18.00;100.00
35577;BME280;21680;52.400;16.920;2022-08-23T06:19:07;100718.20;;;18.05;100.00
35577;BME280;21680;52.400;16.920;2022-08-23T06:21:35;100723.28;;;18.10;100.00
35577;BME280;21680;52.400;16.920;2022-08-23T06:24:02;100726.75;;;18.12;100.00
35577;BME280;21680;52.400;16.920;2022-08-23T06:26:31;100730.11;;;18.15;100.00
35577;BME280;21680;52.400;16.920;2022-08-23T06:29:02;100732.48;;;18.20;100.00
35577;BME280;21680;52.400;16.920;2022-08-23T06:31:31;100727.55;;;18.25;100.00
35577;BME280;21680;52.400;16.920;2022-08-23T06:34:02;100735.73;;;18.31;100.00
35577;BME280;21680;52.400;16.920;2022-08-23T06:36:28;100731.05;;;18.33;100.00
35577;BME280;21680;52.400;16.920;2022-08-23T06:38:56;100728.11;;;18.36;100.00
35577;BME280;21680;52.400;16.920;2022-08-23T06:41:22;100726.00;;;18.34;100.00
35577;BME280;21680;52.400;16.920;2022-08-23T06:43:48;100725.66;;;18.38;100.00
35577;BME280;21680;52.400;16.920;2022-08-23T06:46:22;100729.65;;;18.45;100.00
35577;BME280;21680;52.400;16.920;2022-08-23T06:48:50;100724.37;;;18.49;100.00
35577;BME280;21680;52.400;16.920;2022-08-23T06:53:56;100729.10;;;18.59;100.00
35577;BME280;21680;52.400;16.920;2022-08-23T06:56:25;100743.05;;;18.60;100.00
35577;BME280;21680;52.400;16.920;2022-08-23T06:58:53;100737.05;;;18.62;100.00
35577;BME280;21680;52.400;16.920;2022-08-23T07:04:09;100739.45;;;18.72;100.00
35577;BME280;21680;52.400;16.920;2022-08-23T07:06:37;100743.28;;;18.75;100.00
35577;BME280;21680;52.400;16.920;2022-08-23T07:09:04;100744.27;;;18.74;100.00
35577;BME280;21680;52.400;16.920;2022-08-23T07:11:32;100746.00;;;18.75;100.00
35577;BME280;21680;52.400;16.920;2022-08-23T07:14:00;100753.17;;;18.76;100.00
35577;BME280;21680;52.400;16.920;2022-08-23T07:16:33;100748.86;;;18.79;100.00
35577;BME280;21680;52.400;16.920;2022-08-23T07:19:00;100751.84;;;18.81;100.00
35577;BME280;21680;52.400;16.920;2022-08-23T07:21:27;100762.09;;;18.84;100.00
35577;BME280;21680;52.400;16.920;2022-08-23T07:23:52;100761.48;;;18.86;100.00
35577;BME280;21680;52.400;16.920;2022-08-23T07:26:20;100763.33;;;18.85;100.00
35577;BME280;21680;52.400;16.920;2022-08-23T07:28:47;100763.83;;;18.85;100.00
35577;BME280;21680;52.400;16.920;2022-08-23T07:31:20;100763.70;;;18.86;100.00
35577;BME280;21680;52.400;16.920;2022-08-23T07:33:48;100763.33;;;18.85;100.00
35577;BME280;21680;52.400;16.920;2022-08-23T07:36:17;100765.09;;;18.92;100.00
35577;BME280;21680;52.400;16.920;2022-08-23T07:38:45;100773.13;;;18.93;100.00
35577;BME280;21680;52.400;16.920;2022-08-23T07:41:11;100773.99;;;18.94;100.00
35577;BME280;21680;52.400;16.920;2022-08-23T07:43:38;100777.20;;;18.93;100.00
35577;BME280;21680;52.400;16.920;2022-08-23T07:46:06;100779.54;;;18.92;100.00
35577;BME280;21680;52.400;16.920;2022-08-23T07:48:33;100782.75;;;18.92;100.00
35577;BME280;21680;52.400;16.920;2022-08-23T07:51:02;100777.20;;;18.93;100.00
35577;BME280;21680;52.400;16.920;2022-08-23T07:53:30;100781.02;;;18.91;100.00
35577;BME280;21680;52.400;16.920;2022-08-23T07:55:56;100789.42;;;18.93;100.00
35577;BME280;21680;52.400;16.920;2022-08-23T07:58:24;100784.12;;;18.97;100.00
35577;BME280;21680;52.400;16.920;2022-08-23T08:00:51;100791.81;;;19.03;100.00
35577;BME280;21680;52.400;16.920;2022-08-23T08:03:18;100798.00;;;19.05;100.00
35577;BME280;21680;52.400;16.920;2022-08-23T08:05:44;100795.66;;;19.06;100.00
35577;BME280;21680;52.400;16.920;2022-08-23T08:08:11;100795.54;;;19.08;100.00
35577;BME280;21680;52.400;16.920;2022-08-23T08:10:39;100797.77;;;19.08;100.00
35577;BME280;21680;52.400;16.920;2022-08-23T08:13:07;100798.89;;;19.11;100.00
35577;BME280;21680;52.400;16.920;2022-08-23T08:15:34;100795.20;;;19.18;100.00
35577;BME280;21680;52.400;16.920;2022-08-23T08:18:00;100799.55;;;19.21;100.00
35577;BME280;21680;52.400;16.920;2022-08-23T08:20:27;100799.19;;;19.25;100.00
35577;BME280;21680;52.400;16.920;2022-08-23T08:22:55;100804.50;;;19.27;100.00
35577;BME280;21680;52.400;16.920;2022-08-23T08:25:21;100806.87;;;19.31;100.00
35577;BME280;21680;52.400;16.920;2022-08-23T08:27:47;100803.42;;;19.35;100.00
35577;BME280;21680;52.400;16.920;2022-08-23T08:30:13;100806.89;;;19.37;100.00
35577;BME280;21680;52.400;16.920;2022-08-23T08:32:39;100814.55;;;19.37;100.00
35577;BME280;21680;52.400;16.920;2022-08-23T08:35:08;100822.47;;;19.40;100.00
35577;BME280;21680;52.400;16.920;2022-08-23T08:37:34;100815.44;;;19.43;100.00
35577;BME280;21680;52.400;16.920;2022-08-23T08:40:01;100810.25;;;19.46;100.00
35577;BME280;21680;52.400;16.920;2022-08-23T08:42:58;100815.08;;;19.48;100.00
35577;BME280;21680;52.400;16.920;2022-08-23T08:45:22;100817.96;;;19.52;100.00
35577;BME280;21680;52.400;16.920;2022-08-23T08:47:54;100820.20;;;19.58;100.00
35577;BME280;21680;52.400;16.920;2022-08-23T08:50:30;100815.52;;;19.66;100.00
35577;BME280;21680;52.400;16.920;2022-08-23T08:53:01;100815.16;;;19.70;100.00
35577;BME280;21680;52.400;16.920;2022-08-23T08:55:31;100820.86;;;19.73;100.00
35577;BME280;21680;52.400;16.920;2022-08-23T08:57:59;100818.39;;;19.75;100.00
35577;BME280;21680;52.400;16.920;2022-08-23T09:00:33;100824.70;;;19.82;100.00
35577;BME280;21680;52.400;16.920;2022-08-23T09:03:11;100830.41;;;19.90;100.00
35577;BME280;21680;52.400;16.920;2022-08-23T09:05:35;100829.05;;;19.90;100.00
35577;BME280;21680;52.400;16.920;2022-08-23T09:08:12;100834.36;;;19.91;100.00
35577;BME280;21680;52.400;16.920;2022-08-23T09:11:27;100822.74;;;19.95;100.00
35577;BME280;21680;52.400;16.920;2022-08-23T09:14:07;100830.28;;;19.91;100.00
35577;BME280;21680;52.400;16.920;2022-08-23T09:16:51;100831.77;;;19.95;100.00
35577;BME280;21680;52.400;16.920;2022-08-23T09:19:21;100831.41;;;20.00;100.00
35577;BME280;21680;52.400;16.920;2022-08-23T09:21:58;100831.66;;;20.02;100.00
35577;BME280;21680;52.400;16.920;2022-08-23T09:24:26;100831.78;;;20.01;100.00
35577;BME280;21680;52.400;16.920;2022-08-23T09:26:53;100833.39;;;20.03;100.00
35577;BME280;21680;52.400;16.920;2022-08-23T09:29:23;100832.28;;;20.06;100.00
35577;BME280;21680;52.400;16.920;2022-08-23T09:32:00;100836.73;;;20.01;100.00
35577;BME280;21680;52.400;16.920;2022-08-23T09:37:13;100826.70;;;19.96;100.00
35577;BME280;21680;52.400;16.920;2022-08-23T09:39:51;100835.47;;;19.89;100.00
35577;BME280;21680;52.400;16.920;2022-08-23T09:42:33;100838.80;;;19.81;100.00
35577;BME280;21680;52.400;16.920;2022-08-23T09:45:28;100837.20;;;19.84;100.00
35577;BME280;21680;52.400;16.920;2022-08-23T09:47:55;100838.81;;;19.87;100.00
35577;BME280;21680;52.400;16.920;2022-08-23T09:53:02;100843.64;;;19.94;100.00
35577;BME280;21680;52.400;16.920;2022-08-23T09:55:39;100842.65;;;19.90;100.00
35577;BME280;21680;52.400;16.920;2022-08-23T09:58:28;100841.28;;;19.90;100.00
35577;BME280;21680;52.400;16.920;2022-08-23T10:01:11;100843.89;;;19.91;100.00
35577;BME280;21680;52.400;16.920;2022-08-23T10:03:47;100840.93;;;20.00;100.00
35577;BME280;21680;52.400;16.920;2022-08-23T10:06:14;100847.86;;;20.04;100.00
35577;BME280;21680;52.400;16.920;2022-08-23T10:08:53;100852.69;;;20.06;100.00
35577;BME280;21680;52.400;16.920;2022-08-23T10:11:25;100852.81;;;20.04;100.00
35577;BME280;21680;52.400;16.920;2022-08-23T10:13:55;100862.58;;;20.01;100.00
35577;BME280;21680;52.400;16.920;2022-08-23T10:16:36;100859.73;;;19.97;100.00
35577;BME280;21680;52.400;16.920;2022-08-23T10:21:40;100865.91;;;19.99;100.00
35577;BME280;21680;52.400;16.920;2022-08-23T10:29:37;100866.66;;;20.01;100.00
35577;BME280;21680;52.400;16.920;2022-08-23T10:35:18;100864.06;;;20.00;99.83
35577;BME280;21680;52.400;16.920;2022-08-23T10:43:38;100862.21;;;20.06;99.97
35577;BME280;21680;52.400;16.920;2022-08-23T10:46:09;100858.26;;;20.10;99.91
35577;BME280;21680;52.400;16.920;2022-08-23T10:48:56;100852.69;;;20.12;99.86
35577;BME280;21680;52.400;16.920;2022-08-23T10:51:27;100850.96;;;20.10;99.76
35577;BME280;21680;52.400;16.920;2022-08-23T10:54:07;100847.88;;;20.21;99.96
35577;BME280;21680;52.400;16.920;2022-08-23T10:56:47;100850.84;;;20.23;99.78
35577;BME280;21680;52.400;16.920;2022-08-23T10:59:19;100842.55;;;20.25;99.71
35577;BME280;21680;52.400;16.920;2022-08-23T11:02:07;100847.37;;;20.27;99.62
35577;BME280;21680;52.400;16.920;2022-08-23T11:04:47;100845.28;;;20.25;99.61
35577;BME280;21680;52.400;16.920;2022-08-23T11:07:38;100842.92;;;20.26;99.52
35577;BME280;21680;52.400;16.920;2022-08-23T11:15:31;100852.23;;;20.46;99.71
35577;BME280;21680;52.400;16.920;2022-08-23T11:37:54;100843.41;;;20.76;98.96
35577;BME280;21680;52.400;16.920;2022-08-23T11:40:40;100841.66;;;20.80;99.03
35577;BME280;21680;52.400;16.920;2022-08-23T11:43:22;100840.00;;;20.89;99.08
35577;BME280;21680;52.400;16.920;2022-08-23T11:45:52;100835.77;;;20.96;98.99
35577;BME280;21680;52.400;16.920;2022-08-23T11:48:35;100836.75;;;21.00;98.81
35577;BME280;21680;52.400;16.920;2022-08-23T11:51:32;100834.13;;;21.04;98.80
35577;BME280;21680;52.400;16.920;2022-08-23T11:57:24;100829.40;;;21.12;98.17
35577;BME280;21680;52.400;16.920;2022-08-23T12:00:18;100831.28;;;21.06;98.18
35577;BME280;21680;52.400;16.920;2022-08-23T12:08:44;100840.02;;;21.21;98.19
35577;BME280;21680;52.400;16.920;2022-08-23T12:11:08;100832.85;;;21.25;98.05
35577;BME280;21680;52.400;16.920;2022-08-23T12:13:47;100833.43;;;21.34;98.17
35577;BME280;21680;52.400;16.920;2022-08-23T12:18:55;100822.57;;;21.50;98.07
35577;BME280;21680;52.400;16.920;2022-08-23T12:21:39;100824.54;;;21.53;98.00
35577;BME280;21680;52.400;16.920;2022-08-23T12:24:21;100828.99;;;21.54;97.64
35577;BME280;21680;52.400;16.920;2022-08-23T12:32:22;100822.64;;;21.59;97.17
35577;BME280;21680;52.400;16.920;2022-08-23T12:35:05;100821.41;;;21.58;97.21
35577;BME280;21680;52.400;16.920;2022-08-23T12:37:52;100818.39;;;21.66;97.00
35577;BME280;21680;52.400;16.920;2022-08-23T12:40:29;100817.92;;;21.61;96.56
35577;BME280;21680;52.400;16.920;2022-08-23T12:43:15;100814.92;;;21.64;96.55
35577;BME280;21680;52.400;16.920;2022-08-23T12:45:45;100816.63;;;21.71;96.59
35577;BME280;21680;52.400;16.920;2022-08-23T12:48:17;100822.77;;;21.79;96.44
35577;BME280;21680;52.400;16.920;2022-08-23T12:50:56;100816.73;;;21.90;96.60
35577;BME280;21680;52.400;16.920;2022-08-23T12:53:37;100822.88;;;22.03;96.58
35577;BME280;21680;52.400;16.920;2022-08-23T12:56:19;100821.11;;;22.08;96.30
35577;BME280;21680;52.400;16.920;2022-08-23T12:58:50;100822.70;;;22.11;96.17
35577;BME280;21680;52.400;16.920;2022-08-23T13:01:29;100820.02;;;22.20;96.19
35577;BME280;21680;52.400;16.920;2022-08-23T13:04:06;100821.52;;;22.19;96.00
35577;BME280;21680;52.400;16.920;2022-08-23T13:06:46;100824.34;;;22.23;95.99
35577;BME280;21680;52.400;16.920;2022-08-23T13:09:22;100827.84;;;22.34;96.14
35577;BME280;21680;52.400;16.920;2022-08-23T13:11:50;100829.70;;;22.34;95.23
35577;BME280;21680;52.400;16.920;2022-08-23T13:14:26;100832.48;;;22.28;95.37
35577;BME280;21680;52.400;16.920;2022-08-23T13:22:53;100838.66;;;22.46;95.14
35577;BME280;21680;52.400;16.920;2022-08-23T13:25:26;100843.10;;;22.62;95.06
35577;BME280;21680;52.400;16.920;2022-08-23T13:27:57;100840.96;;;22.81;95.09
35577;BME280;21680;52.400;16.920;2022-08-23T13:30:28;100842.36;;;23.00;95.10
35577;BME280;21680;52.400;16.920;2022-08-23T13:35:38;100846.36;;;23.40;94.66
35577;BME280;21680;52.400;16.920;2022-08-23T13:41:04;100844.27;;;23.57;93.78
35577;BME280;21680;52.400;16.920;2022-08-23T13:46:24;100827.73;;;24.66;94.81
35577;BME280;21680;52.400;16.920;2022-08-23T13:49:14;100833.75;;;25.11;93.74
35577;BME280;21680;52.400;16.920;2022-08-23T13:52:04;100830.51;;;25.29;93.14
35577;BME280;21680;52.400;16.920;2022-08-23T13:54:33;100834.27;;;25.46;92.55
35577;BME280;21680;52.400;16.920;2022-08-23T13:57:04;100833.80;;;25.68;91.68
35577;BME280;21680;52.400;16.920;2022-08-23T13:59:37;100831.82;;;25.61;90.14
35577;BME280;21680;52.400;16.920;2022-08-23T14:02:08;100842.38;;;25.51;90.24
35577;BME280;21680;52.400;16.920;2022-08-23T14:04:39;100839.63;;;25.51;89.11
35577;BME280;21680;52.400;16.920;2022-08-23T14:07:06;100838.06;;;25.49;89.48
35577;BME280;21680;52.400;16.920;2022-08-23T14:09:34;100843.23;;;25.52;88.87
35577;BME280;21680;52.400;16.920;2022-08-23T14:12:07;100839.09;;;25.48;88.35
35577;BME280;21680;52.400;16.920;2022-08-23T14:14:36;100842.06;;;25.19;86.83
35577;BME280;21680;52.400;16.920;2022-08-23T14:17:04;100831.99;;;24.78;84.71
35577;BME280;21680;52.400;16.920;2022-08-23T14:19:32;100828.84;;;24.73;86.31
35577;BME280;21680;52.400;16.920;2022-08-23T14:21:59;100827.81;;;24.88;85.96